sensor_id;sensor_type;location;lat;lon;timestamp;pressure;altitude;pressure_sealevel;temperature;humidity
56270;BME280;42176;43.240;27.880;2023-02-03T00:01:31;100178.13;;;0.89;100.00
56270;BME280;42176;43.240;27.880;2023-02-03T00:03:56;100177.69;;;1.15;100.00
56270;BME280;42176;43.240;27.880;2023-02-03T00:06:22;100179.59;;;1.25;100.00
56270;BME280;42176;43.240;27.880;2023-02-03T00:08:48;100180.91;;;1.52;100.00
56270;BME280;42176;43.240;27.880;2023-02-03T00:11:13;100190.41;;;0.96;100.00
56270;BME280;42176;43.240;27.880;2023-02-03T00:13:39;100189.75;;;1.06;100.00
56270;BME280;42176;43.240;27.880;2023-02-03T00:16:05;100185.53;;;1.15;100.00
56270;BME280;42176;43.240;27.880;2023-02-03T00:18:33;100195.25;;;1.25;100.00
56270;BME280;42176;43.240;27.880;2023-02-03T00:20:59;100200.25;;;1.65;100.00
56270;BME280;42176;43.240;27.880;2023-02-03T00:23:24;100209.69;;;1.03;100.00
56270;BME280;42176;43.240;27.880;2023-02-03T00:25:51;100208.94;;;0.63;100.00
56270;BME280;42176;43.240;27.880;2023-02-03T00:28:16;100204.94;;;0.82;100.00
56270;BME280;42176;43.240;27.880;2023-02-03T00:30:42;100219.13;;;0.96;100.00
56270;BME280;42176;43.240;27.880;2023-02-03T00:33:07;100218.53;;;1.11;100.00
56270;BME280;42176;43.240;27.880;2023-02-03T00:35:37;100225.53;;;0.66;100.00
56270;BME280;42176;43.240;27.880;2023-02-03T00:38:02;100231.25;;;0.48;100.00
56270;BME280;42176;43.240;27.880;2023-02-03T00:40:28;100235.56;;;0.46;100.00
56270;BME280;42176;43.240;27.880;2023-02-03T00:42:54;100232.34;;;0.58;100.00
56270;BME280;42176;43.240;27.880;2023-02-03T00:45:19;100240.47;;;0.73;100.00
56270;BME280;42176;43.240;27.880;2023-02-03T00:47:45;100236.47;;;0.91;100.00
56270;BME280;42176;43.240;27.880;2023-02-03T00:50:10;100231.16;;;0.43;100.00
56270;BME280;42176;43.240;27.880;2023-02-03T00:52:36;100234.72;;;0.47;100.00
56270;BME280;42176;43.240;27.880;2023-02-03T00:55:02;100242.88;;;1.09;100.00
56270;BME280;42176;43.240;27.880;2023-02-03T00:57:28;100237.34;;;0.49;100.00
56270;BME280;42176;43.240;27.880;2023-02-03T00:59:53;100232.09;;;0.47;100.00
56270;BME280;42176;43.240;27.880;2023-02-03T01:02:20;100239.25;;;0.56;100.00
56270;BME280;42176;43.240;27.880;2023-02-03T01:04:45;100240.25;;;1.09;100.00
56270;BME280;42176;43.240;27.880;2023-02-03T01:07:11;100214.53;;;0.38;100.00
56270;BME280;42176;43.240;27.880;2023-02-03T01:09:36;100234.94;;;0.58;100.00
56270;BME280;42176;43.240;27.880;2023-02-03T01:12:03;100236.09;;;0.72;100.00
56270;BME280;42176;43.240;27.880;2023-02-03T01:14:29;100220.25;;;1.09;100.00
56270;BME280;42176;43.240;27.880;2023-02-03T01:16:54;100239.19;;;0.53;100.00
56270;BME280;42176;43.240;27.880;2023-02-03T01:19:20;100233.78;;;0.43;100.00
56270;BME280;42176;43.240;27.880;2023-02-03T01:21:46;100224.50;;;0.58;100.00
56270;BME280;42176;43.240;27.880;2023-02-03T01:24:11;100237.22;;;0.85;100.00
56270;BME280;42176;43.240;27.880;2023-02-03T01:26:39;100231.94;;;0.39;100.00
56270;BME280;42176;43.240;27.880;2023-02-03T01:29:05;100240.28;;;0.23;100.00
56270;BME280;42176;43.240;27.880;2023-02-03T01:33:58;100235.97;;;0.66;100.00
56270;BME280;42176;43.240;27.880;2023-02-03T01:36:26;100235.59;;;0.92;100.00
56270;BME280;42176;43.240;27.880;2023-02-03T01:38:53;100247.97;;;0.58;100.00
56270;BME280;42176;43.240;27.880;2023-02-03T01:41:23;100241.00;;;0.57;100.00
56270;BME280;42176;43.240;27.880;2023-02-03T01:43:51;100247.97;;;0.58;100.00
56270;BME280;42176;43.240;27.880;2023-02-03T01:49:10;100230.03;;;0.73;100.00
56270;BME280;42176;43.240;27.880;2023-02-03T01:51:39;100236.03;;;0.71;100.00
56270;BME280;42176;43.240;27.880;2023-02-03T01:54:09;100239.56;;;0.71;100.00
56270;BME280;42176;43.240;27.880;2023-02-03T01:56:38;100236.78;;;1.10;100.00
56270;BME280;42176;43.240;27.880;2023-02-03T01:59:05;100235.84;;;0.60;100.00
56270;BME280;42176;43.240;27.880;2023-02-03T02:01:31;100223.22;;;0.37;100.00
56270;BME280;42176;43.240;27.880;2023-02-03T02:03:58;100225.47;;;0.63;100.00
56270;BME280;42176;43.240;27.880;2023-02-03T02:06:25;100228.47;;;0.83;100.00
56270;BME280;42176;43.240;27.880;2023-02-03T02:08:52;100233.16;;;1.01;100.00
56270;BME280;42176;43.240;27.880;2023-02-03T02:11:18;100229.97;;;1.18;100.00
56270;BME280;42176;43.240;27.880;2023-02-03T02:13:46;100235.84;;;1.06;100.00
56270;BME280;42176;43.240;27.880;2023-02-03T02:33:12;100208.63;;;1.42;100.00
56270;BME280;42176;43.240;27.880;2023-02-03T02:35:43;100224.25;;;1.41;100.00
56270;BME280;42176;43.240;27.880;2023-02-03T02:38:45;100237.38;;;1.44;100.00
56270;BME280;42176;43.240;27.880;2023-02-03T02:41:18;100245.06;;;0.87;100.00
56270;BME280;42176;43.240;27.880;2023-02-03T02:44:06;100252.00;;;0.02;100.00
56270;BME280;42176;43.240;27.880;2023-02-03T02:46:42;100242.28;;;-0.05;100.00
56270;BME280;42176;43.240;27.880;2023-02-03T02:49:38;100252.22;;;0.11;100.00
56270;BME280;42176;43.240;27.880;2023-02-03T02:52:07;100245.38;;;0.58;100.00
56270;BME280;42176;43.240;27.880;2023-02-03T02:54:37;100248.66;;;0.49;100.00
56270;BME280;42176;43.240;27.880;2023-02-03T02:57:05;100238.44;;;0.19;100.00
56270;BME280;42176;43.240;27.880;2023-02-03T02:59:34;100234.94;;;0.17;100.00
56270;BME280;42176;43.240;27.880;2023-02-03T03:02:00;100229.41;;;0.42;100.00
56270;BME280;42176;43.240;27.880;2023-02-03T03:04:28;100238.47;;;0.62;100.00
56270;BME280;42176;43.240;27.880;2023-02-03T03:07:05;100238.22;;;0.92;100.00
56270;BME280;42176;43.240;27.880;2023-02-03T03:09:32;100248.88;;;0.19;100.00
56270;BME280;42176;43.240;27.880;2023-02-03T03:12:11;100239.28;;;0.16;100.00
56270;BME280;42176;43.240;27.880;2023-02-03T03:14:40;100251.03;;;0.38;100.00
56270;BME280;42176;43.240;27.880;2023-02-03T03:17:10;100239.06;;;0.47;100.00
56270;BME280;42176;43.240;27.880;2023-02-03T03:19:43;100255.22;;;0.71;100.00
56270;BME280;42176;43.240;27.880;2023-02-03T03:22:12;100257.47;;;-0.25;100.00
56270;BME280;42176;43.240;27.880;2023-02-03T03:24:45;100274.66;;;-0.32;100.00
56270;BME280;42176;43.240;27.880;2023-02-03T03:30:09;100282.25;;;-0.05;100.00
56270;BME280;42176;43.240;27.880;2023-02-03T03:32:37;100286.19;;;0.56;100.00
56270;BME280;42176;43.240;27.880;2023-02-03T03:35:03;100285.59;;;-0.10;100.00
56270;BME280;42176;43.240;27.880;2023-02-03T03:37:39;100303.00;;;-0.44;100.00
56270;BME280;42176;43.240;27.880;2023-02-03T03:40:11;100308.03;;;-0.17;100.00
56270;BME280;42176;43.240;27.880;2023-02-03T03:45:23;100309.50;;;0.48;100.00
56270;BME280;42176;43.240;27.880;2023-02-03T03:48:00;100310.59;;;-0.19;100.00
56270;BME280;42176;43.240;27.880;2023-02-03T03:50:32;100306.38;;;-0.49;100.00
56270;BME280;42176;43.240;27.880;2023-02-03T03:53:00;100301.41;;;-0.39;100.00
56270;BME280;42176;43.240;27.880;2023-02-03T03:55:29;100300.00;;;-0.25;100.00
56270;BME280;42176;43.240;27.880;2023-02-03T03:58:02;100310.81;;;-0.09;100.00
56270;BME280;42176;43.240;27.880;2023-02-03T04:00:31;100309.56;;;0.11;100.00
56270;BME280;42176;43.240;27.880;2023-02-03T04:03:04;100307.22;;;0.22;100.00
56270;BME280;42176;43.240;27.880;2023-02-03T04:05:32;100315.25;;;0.33;100.00
56270;BME280;42176;43.240;27.880;2023-02-03T04:07:58;100310.19;;;0.39;100.00
56270;BME280;42176;43.240;27.880;2023-02-03T04:10:43;100309.34;;;0.40;100.00
56270;BME280;42176;43.240;27.880;2023-02-03T04:13:09;100303.13;;;0.35;100.00
56270;BME280;42176;43.240;27.880;2023-02-03T04:15:35;100305.66;;;0.30;100.00
56270;BME280;42176;43.240;27.880;2023-02-03T04:18:01;100307.13;;;0.19;100.00
56270;BME280;42176;43.240;27.880;2023-02-03T04:20:27;100315.72;;;0.15;100.00
56270;BME280;42176;43.240;27.880;2023-02-03T04:22:53;100321.75;;;0.12;100.00
56270;BME280;42176;43.240;27.880;2023-02-03T04:25:19;100323.81;;;0.27;100.00
56270;BME280;42176;43.240;27.880;2023-02-03T04:27:45;100332.81;;;-0.67;100.00
56270;BME280;42176;43.240;27.880;2023-02-03T04:30:10;100342.75;;;-1.16;100.00
56270;BME280;42176;43.240;27.880;2023-02-03T04:32:36;100345.03;;;-0.96;100.00
56270;BME280;42176;43.240;27.880;2023-02-03T04:35:04;100349.75;;;-0.83;100.00
56270;BME280;42176;43.240;27.880;2023-02-03T04:37:30;100354.41;;;-0.37;100.00
56270;BME280;42176;43.240;27.880;2023-02-03T04:39:55;100340.19;;;-0.50;100.00
56270;BME280;42176;43.240;27.880;2023-02-03T04:42:22;100362.22;;;-1.01;100.00
56270;BME280;42176;43.240;27.880;2023-02-03T04:44:47;100362.47;;;-0.92;100.00
56270;BME280;42176;43.240;27.880;2023-02-03T04:47:13;100368.06;;;-0.80;100.00
56270;BME280;42176;43.240;27.880;2023-02-03T04:49:39;100372.06;;;-0.59;100.00
56270;BME280;42176;43.240;27.880;2023-02-03T04:52:05;100358.84;;;0.01;100.00
56270;BME280;42176;43.240;27.880;2023-02-03T04:54:30;100369.88;;;-0.75;100.00
56270;BME280;42176;43.240;27.880;2023-02-03T04:56:56;100370.53;;;-1.15;100.00
56270;BME280;42176;43.240;27.880;2023-02-03T04:59:21;100368.28;;;-1.01;100.00
56270;BME280;42176;43.240;27.880;2023-02-03T05:01:47;100367.78;;;-0.89;100.00
56270;BME280;42176;43.240;27.880;2023-02-03T05:04:12;100363.41;;;-0.58;100.00
56270;BME280;42176;43.240;27.880;2023-02-03T05:06:38;100376.97;;;-1.31;100.00
56270;BME280;42176;43.240;27.880;2023-02-03T05:09:03;100380.22;;;-1.67;100.00
56270;BME280;42176;43.240;27.880;2023-02-03T05:11:29;100380.09;;;-1.43;100.00
56270;BME280;42176;43.240;27.880;2023-02-03T05:13:58;100396.06;;;-1.30;100.00
56270;BME280;42176;43.240;27.880;2023-02-03T05:16:23;100399.31;;;-0.78;100.00
56270;BME280;42176;43.240;27.880;2023-02-03T05:18:49;100396.31;;;-1.23;100.00
56270;BME280;42176;43.240;27.880;2023-02-03T05:21:14;100404.69;;;-1.60;100.00
56270;BME280;42176;43.240;27.880;2023-02-03T05:23:40;100407.88;;;-1.42;100.00
56270;BME280;42176;43.240;27.880;2023-02-03T05:26:06;100404.16;;;-1.21;100.00
56270;BME280;42176;43.240;27.880;2023-02-03T05:28:31;100400.47;;;-0.68;100.00
56270;BME280;42176;43.240;27.880;2023-02-03T05:30:58;100389.75;;;-1.39;100.00
56270;BME280;42176;43.240;27.880;2023-02-03T05:33:24;100367.47;;;-1.59;100.00
56270;BME280;42176;43.240;27.880;2023-02-03T05:35:49;100395.03;;;-1.07;100.00
56270;BME280;42176;43.240;27.880;2023-02-03T05:38:15;100400.78;;;-0.88;100.00
56270;BME280;42176;43.240;27.880;2023-02-03T05:40:46;100398.59;;;-0.40;100.00
56270;BME280;42176;43.240;27.880;2023-02-03T05:43:30;100403.47;;;-0.85;100.00
56270;BME280;42176;43.240;27.880;2023-02-03T05:46:02;100389.09;;;-0.05;100.00
56270;BME280;42176;43.240;27.880;2023-02-03T05:48:27;100382.63;;;0.91;100.00
56270;BME280;42176;43.240;27.880;2023-02-03T05:50:53;100414.94;;;1.85;100.00
56270;BME280;42176;43.240;27.880;2023-02-03T05:53:18;100412.00;;;2.74;100.00
56270;BME280;42176;43.240;27.880;2023-02-03T05:55:44;100423.84;;;1.96;97.22
56270;BME280;42176;43.240;27.880;2023-02-03T05:58:09;100426.78;;;2.15;100.00
56270;BME280;42176;43.240;27.880;2023-02-03T06:00:35;100426.13;;;3.55;94.85
56270;BME280;42176;43.240;27.880;2023-02-03T06:03:01;100419.19;;;4.57;82.43
56270;BME280;42176;43.240;27.880;2023-02-03T06:05:28;100403.34;;;2.78;84.37
56270;BME280;42176;43.240;27.880;2023-02-03T06:07:58;100423.91;;;3.15;91.22
56270;BME280;42176;43.240;27.880;2023-02-03T06:10:42;100418.47;;;4.81;82.19
56270;BME280;42176;43.240;27.880;2023-02-03T06:13:12;100415.41;;;5.89;75.05
56270;BME280;42176;43.240;27.880;2023-02-03T06:15:41;100395.22;;;6.77;68.46
56270;BME280;42176;43.240;27.880;2023-02-03T06:18:07;100403.63;;;7.70;62.51
56270;BME280;42176;43.240;27.880;2023-02-03T06:20:33;100401.31;;;8.50;58.25
56270;BME280;42176;43.240;27.880;2023-02-03T06:22:59;100403.16;;;9.26;54.71
56270;BME280;42176;43.240;27.880;2023-02-03T06:25:25;100412.06;;;9.84;51.42
56270;BME280;42176;43.240;27.880;2023-02-03T06:27:51;100413.31;;;10.74;49.08
56270;BME280;42176;43.240;27.880;2023-02-03T06:30:17;100433.91;;;11.51;46.92
56270;BME280;42176;43.240;27.880;2023-02-03T06:32:46;100427.59;;;11.96;45.17
56270;BME280;42176;43.240;27.880;2023-02-03T06:35:12;100434.41;;;12.82;43.80
56270;BME280;42176;43.240;27.880;2023-02-03T06:37:37;100433.38;;;13.20;42.33
56270;BME280;42176;43.240;27.880;2023-02-03T06:40:03;100429.00;;;13.49;41.34
56270;BME280;42176;43.240;27.880;2023-02-03T06:42:29;100437.88;;;14.08;40.18
56270;BME280;42176;43.240;27.880;2023-02-03T06:44:54;100435.94;;;14.67;39.19
56270;BME280;42176;43.240;27.880;2023-02-03T06:47:20;100436.34;;;15.09;37.89
56270;BME280;42176;43.240;27.880;2023-02-03T06:49:51;100439.63;;;15.41;36.96
56270;BME280;42176;43.240;27.880;2023-02-03T06:52:18;100445.31;;;16.03;35.67
56270;BME280;42176;43.240;27.880;2023-02-03T06:54:43;100444.09;;;16.34;35.07
56270;BME280;42176;43.240;27.880;2023-02-03T06:57:09;100443.69;;;16.43;34.36
56270;BME280;42176;43.240;27.880;2023-02-03T06:59:37;100433.44;;;16.75;34.06
56270;BME280;42176;43.240;27.880;2023-02-03T07:02:03;100439.06;;;16.89;33.20
56270;BME280;42176;43.240;27.880;2023-02-03T07:04:28;100449.38;;;17.19;33.52
56270;BME280;42176;43.240;27.880;2023-02-03T07:06:55;100447.31;;;17.45;32.82
56270;BME280;42176;43.240;27.880;2023-02-03T07:09:21;100460.91;;;17.61;31.90
56270;BME280;42176;43.240;27.880;2023-02-03T07:11:47;100459.63;;;18.08;31.96
56270;BME280;42176;43.240;27.880;2023-02-03T07:14:12;100463.22;;;18.81;31.14
56270;BME280;42176;43.240;27.880;2023-02-03T07:16:38;100462.56;;;18.58;30.38
56270;BME280;42176;43.240;27.880;2023-02-03T07:19:04;100452.22;;;18.14;30.81
56270;BME280;42176;43.240;27.880;2023-02-03T07:21:30;100454.69;;;18.72;30.83
56270;BME280;42176;43.240;27.880;2023-02-03T07:23:55;100456.59;;;19.06;29.85
56270;BME280;42176;43.240;27.880;2023-02-03T07:26:21;100459.19;;;18.72;30.21
56270;BME280;42176;43.240;27.880;2023-02-03T07:28:51;100455.50;;;19.10;29.43
56270;BME280;42176;43.240;27.880;2023-02-03T07:31:16;100458.00;;;19.80;29.09
56270;BME280;42176;43.240;27.880;2023-02-03T07:33:48;100460.63;;;20.30;28.49
56270;BME280;42176;43.240;27.880;2023-02-03T07:36:14;100448.44;;;21.01;27.64
56270;BME280;42176;43.240;27.880;2023-02-03T07:38:39;100454.72;;;15.42;34.36
56270;BME280;42176;43.240;27.880;2023-02-03T07:41:05;100468.03;;;10.20;45.82
56270;BME280;42176;43.240;27.880;2023-02-03T07:43:31;100461.34;;;11.92;43.96
56270;BME280;42176;43.240;27.880;2023-02-03T07:45:59;100452.16;;;13.47;40.71
56270;BME280;42176;43.240;27.880;2023-02-03T07:48:25;100451.50;;;13.99;38.63
56270;BME280;42176;43.240;27.880;2023-02-03T07:50:51;100459.81;;;9.78;47.76
56270;BME280;42176;43.240;27.880;2023-02-03T07:53:17;100455.75;;;11.65;46.00
56270;BME280;42176;43.240;27.880;2023-02-03T07:55:42;100463.28;;;13.29;42.22
56270;BME280;42176;43.240;27.880;2023-02-03T07:58:08;100440.34;;;14.95;39.25
56270;BME280;42176;43.240;27.880;2023-02-03T08:00:34;100440.03;;;15.77;36.95
56270;BME280;42176;43.240;27.880;2023-02-03T08:02:59;100446.56;;;16.81;35.19
56270;BME280;42176;43.240;27.880;2023-02-03T08:05:25;100455.34;;;12.23;42.06
56270;BME280;42176;43.240;27.880;2023-02-03T08:07:50;100457.59;;;11.60;45.24
56270;BME280;42176;43.240;27.880;2023-02-03T08:10:16;100471.88;;;13.40;41.44
56270;BME280;42176;43.240;27.880;2023-02-03T08:12:42;100463.41;;;14.72;38.78
56270;BME280;42176;43.240;27.880;2023-02-03T08:15:09;100457.09;;;15.49;37.26
56270;BME280;42176;43.240;27.880;2023-02-03T08:17:35;100451.53;;;16.25;35.37
56270;BME280;42176;43.240;27.880;2023-02-03T08:20:00;100493.38;;;17.14;34.29
56270;BME280;42176;43.240;27.880;2023-02-03T08:22:26;100498.19;;;16.63;34.33
56270;BME280;42176;43.240;27.880;2023-02-03T08:24:51;100508.59;;;16.48;34.73
56270;BME280;42176;43.240;27.880;2023-02-03T08:27:19;100487.84;;;16.53;34.70
56270;BME280;42176;43.240;27.880;2023-02-03T08:29:45;100500.06;;;15.92;35.15
56270;BME280;42176;43.240;27.880;2023-02-03T08:32:16;100487.00;;;16.31;34.97
56270;BME280;42176;43.240;27.880;2023-02-03T08:34:42;100506.50;;;16.99;33.89
56270;BME280;42176;43.240;27.880;2023-02-03T08:37:13;100506.13;;;16.86;34.29
56270;BME280;42176;43.240;27.880;2023-02-03T08:39:39;100505.50;;;17.02;34.11
56270;BME280;42176;43.240;27.880;2023-02-03T08:42:05;100507.16;;;16.62;34.49
56270;BME280;42176;43.240;27.880;2023-02-03T08:44:31;100504.28;;;16.44;34.59
56270;BME280;42176;43.240;27.880;2023-02-03T08:47:01;100493.34;;;16.50;34.65
56270;BME280;42176;43.240;27.880;2023-02-03T08:49:30;100507.34;;;15.63;35.93
56270;BME280;42176;43.240;27.880;2023-02-03T08:51:56;100503.75;;;15.41;36.71
56270;BME280;42176;43.240;27.880;2023-02-03T08:54:23;100511.06;;;13.98;39.07
56270;BME280;42176;43.240;27.880;2023-02-03T08:56:49;100518.50;;;12.51;42.72
56270;BME280;42176;43.240;27.880;2023-02-03T08:59:15;100516.31;;;11.45;45.25
56270;BME280;42176;43.240;27.880;2023-02-03T09:01:41;100513.69;;;10.41;47.54
56270;BME280;42176;43.240;27.880;2023-02-03T09:04:10;100519.59;;;9.96;49.58
56270;BME280;42176;43.240;27.880;2023-02-03T09:06:36;100526.31;;;9.52;51.86
56270;BME280;42176;43.240;27.880;2023-02-03T09:09:02;100530.16;;;9.21;52.28
56270;BME280;42176;43.240;27.880;2023-02-03T09:11:28;100530.50;;;8.87;54.59
56270;BME280;42176;43.240;27.880;2023-02-03T09:13:53;100536.75;;;8.74;54.81
56270;BME280;42176;43.240;27.880;2023-02-03T09:16:21;100524.47;;;8.66;56.66
56270;BME280;42176;43.240;27.880;2023-02-03T09:18:47;100526.28;;;8.61;58.62
56270;BME280;42176;43.240;27.880;2023-02-03T09:21:13;100519.38;;;8.34;58.92
56270;BME280;42176;43.240;27.880;2023-02-03T09:23:43;100527.25;;;8.42;58.31
56270;BME280;42176;43.240;27.880;2023-02-03T09:26:11;100525.69;;;8.17;58.10
56270;BME280;42176;43.240;27.880;2023-02-03T09:28:37;100522.06;;;8.26;58.36
56270;BME280;42176;43.240;27.880;2023-02-03T09:31:05;100528.28;;;8.25;58.75
56270;BME280;42176;43.240;27.880;2023-02-03T09:33:31;100524.69;;;8.29;59.87
56270;BME280;42176;43.240;27.880;2023-02-03T09:36:02;100517.53;;;8.47;58.40
56270;BME280;42176;43.240;27.880;2023-02-03T09:38:31;100493.59;;;6.49;67.05
56270;BME280;42176;43.240;27.880;2023-02-03T09:44:03;100505.00;;;6.98;68.11
56270;BME280;42176;43.240;27.880;2023-02-03T09:46:37;100509.31;;;7.30;64.57
56270;BME280;42176;43.240;27.880;2023-02-03T09:49:34;100521.53;;;7.56;62.65
56270;BME280;42176;43.240;27.880;2023-02-03T09:57:04;100504.88;;;7.44;56.30
56270;BME280;42176;43.240;27.880;2023-02-03T09:59:32;100511.03;;;7.43;56.35
56270;BME280;42176;43.240;27.880;2023-02-03T10:07:47;100498.75;;;7.33;57.01
56270;BME280;42176;43.240;27.880;2023-02-03T10:16:17;100460.19;;;6.76;56.54
56270;BME280;42176;43.240;27.880;2023-02-03T10:18:53;100504.06;;;6.24;60.83
56270;BME280;42176;43.240;27.880;2023-02-03T10:23:55;100503.03;;;5.74;64.80
56270;BME280;42176;43.240;27.880;2023-02-03T10:26:27;100500.56;;;6.19;63.38
56270;BME280;42176;43.240;27.880;2023-02-03T10:28:57;100482.16;;;6.32;61.75
56270;BME280;42176;43.240;27.880;2023-02-03T10:31:34;100497.09;;;6.59;62.48
56270;BME280;42176;43.240;27.880;2023-02-03T10:34:16;100479.53;;;6.81;64.89
56270;BME280;42176;43.240;27.880;2023-02-03T10:39:28;100480.38;;;7.04;62.67
56270;BME280;42176;43.240;27.880;2023-02-03T10:41:55;100478.63;;;6.96;60.04
56270;BME280;42176;43.240;27.880;2023-02-03T10:44:24;100476.84;;;7.12;62.38
56270;BME280;42176;43.240;27.880;2023-02-03T10:46:54;100473.31;;;7.07;61.64
56270;BME280;42176;43.240;27.880;2023-02-03T10:49:19;100479.50;;;7.00;61.39
56270;BME280;42176;43.240;27.880;2023-02-03T10:51:51;100485.66;;;7.07;61.39
56270;BME280;42176;43.240;27.880;2023-02-03T10:57:13;100486.47;;;7.26;61.73
56270;BME280;42176;43.240;27.880;2023-02-03T10:59:44;100481.19;;;7.24;60.90
56270;BME280;42176;43.240;27.880;2023-02-03T11:02:42;100482.94;;;7.27;61.25
56270;BME280;42176;43.240;27.880;2023-02-03T11:05:19;100471.50;;;7.32;62.10
56270;BME280;42176;43.240;27.880;2023-02-03T11:07:51;100484.66;;;7.40;57.32
56270;BME280;42176;43.240;27.880;2023-02-03T11:13:18;100466.22;;;7.34;59.21
56270;BME280;42176;43.240;27.880;2023-02-03T11:15:53;100460.19;;;6.39;62.09
56270;BME280;42176;43.240;27.880;2023-02-03T11:18:41;100485.41;;;5.55;67.75
56270;BME280;42176;43.240;27.880;2023-02-03T11:21:43;100483.00;;;6.03;66.82
56270;BME280;42176;43.240;27.880;2023-02-03T11:26:38;100468.97;;;6.75;61.09
56270;BME280;42176;43.240;27.880;2023-02-03T11:29:05;100479.50;;;6.91;59.38
56270;BME280;42176;43.240;27.880;2023-02-03T11:31:34;100475.09;;;7.04;59.28
56270;BME280;42176;43.240;27.880;2023-02-03T11:34:15;100467.19;;;7.05;56.99
56270;BME280;42176;43.240;27.880;2023-02-03T11:36:44;100465.41;;;7.07;55.49
56270;BME280;42176;43.240;27.880;2023-02-03T11:39:16;100478.47;;;5.68;62.19
56270;BME280;42176;43.240;27.880;2023-02-03T11:41:43;100470.56;;;5.58;63.16
56270;BME280;42176;43.240;27.880;2023-02-03T11:44:16;100474.22;;;6.01;59.88
56270;BME280;42176;43.240;27.880;2023-02-03T11:46:43;100479.53;;;6.44;57.95
56270;BME280;42176;43.240;27.880;2023-02-03T11:53:11;100481.19;;;7.26;55.22
56270;BME280;42176;43.240;27.880;2023-02-03T11:56:09;100477.63;;;7.42;55.39
56270;BME280;42176;43.240;27.880;2023-02-03T11:59:05;100480.34;;;7.19;55.72
56270;BME280;42176;43.240;27.880;2023-02-03T12:01:48;100488.25;;;6.12;60.20
56270;BME280;42176;43.240;27.880;2023-02-03T12:12:50;100481.28;;;6.76;58.08
56270;BME280;42176;43.240;27.880;2023-02-03T12:26:43;100477.69;;;7.18;56.68
56270;BME280;42176;43.240;27.880;2023-02-03T12:29:19;100472.50;;;6.40;58.39
56270;BME280;42176;43.240;27.880;2023-02-03T12:31:59;100479.53;;;6.41;60.46
56270;BME280;42176;43.240;27.880;2023-02-03T12:37:02;100461.94;;;6.93;57.84
56270;BME280;42176;43.240;27.880;2023-02-03T12:42:14;100489.16;;;6.23;62.05
56270;BME280;42176;43.240;27.880;2023-02-03T12:44:58;100478.66;;;6.51;61.32
56270;BME280;42176;43.240;27.880;2023-02-03T12:47:41;100484.81;;;6.69;60.35
56270;BME280;42176;43.240;27.880;2023-02-03T12:50:16;100479.53;;;6.84;59.62
56270;BME280;42176;43.240;27.880;2023-02-03T12:52:52;100484.75;;;7.03;57.23
56270;BME280;42176;43.240;27.880;2023-02-03T13:00:53;100488.31;;;6.34;60.42
56270;BME280;42176;43.240;27.880;2023-02-03T13:03:35;100491.59;;;5.69;64.55
56270;BME280;42176;43.240;27.880;2023-02-03T13:08:37;100485.66;;;6.23;62.03
56270;BME280;42176;43.240;27.880;2023-02-03T13:16:50;100471.59;;;6.05;65.76
56270;BME280;42176;43.240;27.880;2023-02-03T13:19:24;100470.72;;;6.27;63.85
56270;BME280;42176;43.240;27.880;2023-02-03T13:21:52;100472.50;;;6.46;63.27
56270;BME280;42176;43.240;27.880;2023-02-03T13:24:17;100464.63;;;6.68;62.08
56270;BME280;42176;43.240;27.880;2023-02-03T13:40:24;100454.78;;;5.68;65.26
56270;BME280;42176;43.240;27.880;2023-02-03T13:43:01;100451.28;;;5.59;67.36
56270;BME280;42176;43.240;27.880;2023-02-03T13:45:43;100430.31;;;5.90;65.24
56270;BME280;42176;43.240;27.880;2023-02-03T13:50:42;100447.94;;;6.44;62.68
56270;BME280;42176;43.240;27.880;2023-02-03T13:53:20;100458.47;;;6.69;61.00
56270;BME280;42176;43.240;27.880;2023-02-03T13:55:54;100452.28;;;6.87;59.31
56270;BME280;42176;43.240;27.880;2023-02-03T13:58:36;100440.00;;;6.86;58.42
56270;BME280;42176;43.240;27.880;2023-02-03T14:04:08;100462.81;;;6.05;60.77
56270;BME280;42176;43.240;27.880;2023-02-03T14:06:56;100456.53;;;5.59;64.64
56270;BME280;42176;43.240;27.880;2023-02-03T14:12:22;100454.91;;;6.08;62.58
56270;BME280;42176;43.240;27.880;2023-02-03T14:14:57;100453.84;;;5.45;66.30
56270;BME280;42176;43.240;27.880;2023-02-03T14:20:02;100464.56;;;6.03;63.47
56270;BME280;42176;43.240;27.880;2023-02-03T14:22:28;100461.72;;;5.41;67.94
56270;BME280;42176;43.240;27.880;2023-02-03T14:24:55;100460.94;;;5.68;70.64
56270;BME280;42176;43.240;27.880;2023-02-03T14:27:27;100478.50;;;5.83;78.14
56270;BME280;42176;43.240;27.880;2023-02-03T14:35:23;100492.06;;;4.89;96.96
56270;BME280;42176;43.240;27.880;2023-02-03T14:37:56;100484.97;;;4.76;97.21
56270;BME280;42176;43.240;27.880;2023-02-03T14:46:52;100491.16;;;4.81;100.00
56270;BME280;42176;43.240;27.880;2023-02-03T15:07:57;100502.19;;;4.41;99.91
56270;BME280;42176;43.240;27.880;2023-02-03T15:10:43;100499.03;;;3.90;100.00
56270;BME280;42176;43.240;27.880;2023-02-03T15:13:25;100500.25;;;4.23;100.00
56270;BME280;42176;43.240;27.880;2023-02-03T15:15:54;100504.88;;;4.46;100.00
56270;BME280;42176;43.240;27.880;2023-02-03T15:18:31;100508.59;;;4.76;100.00
56270;BME280;42176;43.240;27.880;2023-02-03T15:21:00;100525.47;;;4.08;100.00
56270;BME280;42176;43.240;27.880;2023-02-03T15:23:48;100535.72;;;3.84;100.00
56270;BME280;42176;43.240;27.880;2023-02-03T15:26:17;100548.06;;;3.94;100.00
56270;BME280;42176;43.240;27.880;2023-02-03T15:28:53;100550.03;;;4.14;100.00
56270;BME280;42176;43.240;27.880;2023-02-03T15:31:40;100557.22;;;2.98;100.00
56270;BME280;42176;43.240;27.880;2023-02-03T15:34:19;100547.34;;;2.81;100.00